Time;durP1;ratioP1;P1;durP2;ratioP2;P2;SDS_P1;SDS_P2;PMS_P1;PMS_P2;Temp;Humidity;BMP_temperature;BMP_pressure;BME280_temperature;BME280_humidity;BME280_pressure;Samples;Min_cycle;Max_cycle;Signal;HPM_P1;HPM_P2
2023/10/16 00:02:24;;;;;;;3.27;1.50;;;4.80;99.90;;;;;;5067601;28;20943;-73
2023/10/16 00:04:51;;;;;;;5.67;1.50;;;4.80;99.90;;;;;;5069128;28;20481;-72
2023/10/16 00:07:20;;;;;;;1.17;1.00;;;4.70;99.90;;;;;;5069257;28;20528;-73
2023/10/16 00:09:49;;;;;;;4.37;1.23;;;4.60;99.90;;;;;;5069125;28;20421;-73
2023/10/16 00:12:19;;;;;;;3.40;1.23;;;4.60;99.90;;;;;;5069024;28;20418;-72
2023/10/16 00:14:45;;;;;;;1.20;0.87;;;4.70;99.90;;;;;;5069021;28;20505;-73
2023/10/16 00:17:13;;;;;;;3.97;1.40;;;4.70;99.90;;;;;;5068817;28;20469;-72
2023/10/16 00:19:39;;;;;;;1.87;1.20;;;4.80;99.90;;;;;;5051304;28;20430;-72
2023/10/16 00:22:18;;;;;;;4.13;1.50;;;4.80;99.90;;;;;;5067465;28;20429;-72
2023/10/16 00:24:46;;;;;;;5.03;1.33;;;4.80;99.90;;;;;;5068976;28;20175;-72
2023/10/16 00:27:15;;;;;;;3.37;1.30;;;4.70;99.90;;;;;;5067420;28;20449;-72
2023/10/16 00:29:45;;;;;;;5.40;2.10;;;4.80;99.90;;;;;;5068705;28;20420;-73
2023/10/16 00:32:11;;;;;;;4.37;2.87;;;4.90;99.90;;;;;;5067466;28;20421;-72
2023/10/16 00:34:38;;;;;;;6.07;2.70;;;4.60;99.90;;;;;;5068619;28;20409;-72
2023/10/16 00:37:04;;;;;;;4.37;2.80;;;4.60;99.90;;;;;;5050587;28;20465;-72
2023/10/16 00:39:32;;;;;;;4.83;2.97;;;4.40;99.90;;;;;;5067266;28;20440;-72
2023/10/16 00:41:58;;;;;;;7.67;3.33;;;4.40;99.90;;;;;;5068956;28;20935;-72
2023/10/16 00:44:38;;;;;;;5.47;2.57;;;4.40;99.90;;;;;;5068988;28;20842;-73
2023/10/16 00:47:05;;;;;;;3.93;2.33;;;4.40;99.90;;;;;;5067348;28;20444;-72
2023/10/16 00:49:34;;;;;;;3.60;2.03;;;4.20;99.90;;;;;;5068649;28;20457;-73
2023/10/16 00:52:03;;;;;;;4.07;2.00;;;4.30;99.90;;;;;;5068948;28;20964;-72
2023/10/16 00:54:33;;;;;;;3.57;2.07;;;4.20;99.90;;;;;;5068664;28;20988;-73
2023/10/16 00:57:07;;;;;;;3.13;1.97;;;4.10;99.90;;;;;;5068498;28;20473;-72
2023/10/16 00:59:35;;;;;;;3.90;2.17;;;4.00;99.90;;;;;;5068566;28;20420;-72
2023/10/16 01:04:37;;;;;;;4.50;2.00;;;3.80;99.90;;;;;;5068554;28;20413;-72
2023/10/16 01:07:05;;;;;;;4.30;1.87;;;3.80;99.90;;;;;;5067088;28;20447;-73
2023/10/16 01:09:35;;;;;;;5.80;2.27;;;3.70;99.90;;;;;;5068367;28;20422;-72
2023/10/16 01:12:06;;;;;;;5.00;2.10;;;3.70;99.90;;;;;;5068568;28;20465;-72
2023/10/16 01:14:35;;;;;;;2.20;1.50;;;3.60;99.90;;;;;;5068300;28;20432;-72
2023/10/16 01:17:01;;;;;;;2.40;1.70;;;3.60;99.90;;;;;;5068151;28;20473;-72
2023/10/16 01:19:28;;;;;;;4.20;2.07;;;3.60;99.90;;;;;;5068337;28;20417;-73
2023/10/16 01:21:54;;;;;;;2.97;2.10;;;3.60;99.90;;;;;;5068585;28;20926;-72
2023/10/16 01:24:21;;;;;;;8.03;1.87;;;3.50;99.90;;;;;;5067046;28;20425;-72
2023/10/16 01:26:48;;;;;;;3.20;2.03;;;3.50;99.90;;;;;;5068517;28;20501;-72
2023/10/16 01:29:15;;;;;;;3.27;1.83;;;3.40;99.90;;;;;;5068364;28;20946;-71
2023/10/16 01:31:44;;;;;;;3.67;1.63;;;3.40;99.90;;;;;;5068395;28;20776;-72
2023/10/16 01:34:13;;;;;;;3.57;2.10;;;3.30;99.90;;;;;;5068234;28;20417;-73
2023/10/16 01:36:46;;;;;;;3.33;1.50;;;3.30;99.90;;;;;;5068081;28;20484;-72
2023/10/16 01:39:47;;;;;;;3.13;1.70;;;3.30;99.90;;;;;;5066533;28;20417;-73
2023/10/16 01:42:01;;;;;;;5.90;1.70;;;3.20;99.90;;;;;;5067800;28;20421;-72
2023/10/16 01:44:28;;;;;;;5.28;1.58;;;3.30;99.90;;;;;;5067963;28;20417;-72
2023/10/16 01:46:54;;;;;;;3.70;1.87;;;3.20;99.90;;;;;;5067936;28;20207;-72
2023/10/16 01:49:24;;;;;;;2.30;1.43;;;3.20;99.90;;;;;;5066574;28;20466;-73
2023/10/16 01:51:53;;;;;;;2.70;1.70;;;3.30;99.90;;;;;;5068162;28;20512;-72
2023/10/16 01:54:22;;;;;;;1.70;1.60;;;3.20;99.90;;;;;;5066569;28;20425;-72
2023/10/16 01:56:49;;;;;;;4.50;1.93;;;3.10;99.90;;;;;;5067710;28;20846;-72
2023/10/16 01:59:15;;;;;;;3.43;1.47;;;3.10;99.90;;;;;;5067989;28;20449;-73
2023/10/16 02:01:41;;;;;;;2.03;1.77;;;3.10;99.90;;;;;;5071272;28;20448;-72
2023/10/16 02:04:07;;;;;;;6.70;2.00;;;3.10;99.90;;;;;;5071731;28;20812;-72
2023/10/16 02:06:32;;;;;;;2.87;2.50;;;3.00;99.90;;;;;;5070209;28;20225;-72
2023/10/16 02:08:59;;;;;;;2.03;1.63;;;2.90;99.90;;;;;;5071811;28;20461;-72
2023/10/16 02:11:25;;;;;;;3.33;1.20;;;2.90;99.90;;;;;;5072081;28;20200;-73
2023/10/16 02:13:51;;;;;;;1.40;1.10;;;2.80;99.90;;;;;;5070854;28;20920;-72
2023/10/16 02:16:18;;;;;;;5.27;1.73;;;2.70;99.90;;;;;;5072044;28;20207;-72
2023/10/16 02:18:47;;;;;;;2.10;1.27;;;2.70;99.90;;;;;;5070405;28;20287;-72
2023/10/16 02:21:13;;;;;;;3.70;1.67;;;2.60;99.90;;;;;;5070578;28;20937;-71
2023/10/16 02:23:41;;;;;;;1.87;1.40;;;2.60;99.90;;;;;;5071630;28;20446;-72
2023/10/16 02:26:07;;;;;;;4.20;1.47;;;2.50;99.90;;;;;;5070061;28;20449;-73
2023/10/16 02:28:33;;;;;;;1.50;1.40;;;2.50;99.90;;;;;;5070065;28;20983;-72
2023/10/16 02:31:16;;;;;;;4.93;2.10;;;2.50;99.90;;;;;;5071200;28;20512;-71
2023/10/16 02:33:50;;;;;;;2.93;2.00;;;2.60;99.90;;;;;;5071129;28;20444;-71
2023/10/16 02:36:19;;;;;;;2.70;1.40;;;2.50;99.90;;;;;;5069791;28;20441;-71
2023/10/16 02:38:47;;;;;;;3.10;1.60;;;2.50;99.90;;;;;;5070802;28;20515;-73
2023/10/16 02:41:14;;;;;;;1.70;1.60;;;2.60;99.90;;;;;;5069345;28;20416;-72
2023/10/16 02:43:45;;;;;;;2.90;1.30;;;2.50;99.90;;;;;;5070937;28;20451;-72
2023/10/16 02:46:11;;;;;;;3.27;1.40;;;2.50;99.90;;;;;;5070725;28;21030;-72
2023/10/16 02:48:43;;;;;;;3.97;1.67;;;2.50;99.90;;;;;;5070781;28;20853;-72
2023/10/16 02:51:10;;;;;;;4.00;1.60;;;2.50;99.90;;;;;;5070686;28;20482;-72
2023/10/16 02:53:36;;;;;;;1.57;1.47;;;2.50;99.90;;;;;;5070750;28;20835;-72
2023/10/16 02:56:08;;;;;;;1.52;1.08;;;2.50;99.90;;;;;;5070568;28;20516;-72
2023/10/16 02:58:42;;;;;;;3.90;2.40;;;2.40;99.90;;;;;;5070450;28;20309;-72
2023/10/16 03:01:14;;;;;;;1.77;1.57;;;2.40;99.90;;;;;;5068961;28;20439;-72
2023/10/16 03:03:43;;;;;;;1.73;1.57;;;2.40;99.90;;;;;;5070464;28;20927;-72
2023/10/16 03:06:09;;;;;;;2.43;1.77;;;2.40;99.90;;;;;;5070415;28;20829;-72
2023/10/16 03:08:36;;;;;;;2.17;1.53;;;2.50;99.90;;;;;;5070423;28;20417;-72
2023/10/16 03:11:13;;;;;;;3.13;1.57;;;2.50;99.90;;;;;;5070547;28;20452;-72
2023/10/16 03:13:43;;;;;;;1.53;1.30;;;2.40;99.90;;;;;;5070778;28;20448;-72
2023/10/16 03:16:23;;;;;;;4.47;1.63;;;2.40;99.90;;;;;;5069125;28;20441;-73
2023/10/16 03:18:49;;;;;;;6.55;1.90;;;2.40;99.90;;;;;;5069339;28;20871;-72
2023/10/16 03:23:44;;;;;;;3.77;1.30;;;2.30;99.90;;;;;;5070445;28;20423;-73
2023/10/16 03:26:25;;;;;;;2.17;1.63;;;2.30;99.90;;;;;;5068698;28;20475;-72
2023/10/16 03:28:54;;;;;;;4.23;1.97;;;2.20;99.90;;;;;;5069980;28;20417;-72
2023/10/16 03:31:23;;;;;;;1.50;1.40;;;2.20;99.90;;;;;;5070038;28;21191;-72
2023/10/16 03:33:53;;;;;;;3.77;1.60;;;2.20;99.90;;;;;;5068639;28;20432;-72
2023/10/16 03:36:19;;;;;;;3.53;1.87;;;2.30;99.90;;;;;;5070074;28;20520;-72
2023/10/16 03:38:45;;;;;;;2.00;1.80;;;2.20;99.90;;;;;;5070017;28;20625;-72
2023/10/16 03:41:13;;;;;;;3.10;1.93;;;2.20;99.90;;;;;;5070159;28;20193;-73
2023/10/16 03:43:42;;;;;;;5.53;1.52;;;2.10;99.90;;;;;;5068922;28;20424;-72
2023/10/16 03:46:10;;;;;;;2.10;1.70;;;2.20;99.90;;;;;;5070212;28;20199;-72
2023/10/16 03:48:39;;;;;;;1.83;1.40;;;2.20;99.90;;;;;;5068549;28;20436;-73
2023/10/16 03:51:08;;;;;;;2.17;1.50;;;2.10;99.90;;;;;;5069984;28;20660;-72
2023/10/16 03:53:35;;;;;;;2.10;1.85;;;2.10;99.90;;;;;;5068651;28;20187;-71
2023/10/16 03:56:02;;;;;;;2.73;1.40;;;2.10;99.90;;;;;;5068619;28;20234;-72
2023/10/16 03:58:27;;;;;;;2.03;1.85;;;2.10;99.90;;;;;;5068594;28;20469;-72
2023/10/16 04:00:53;;;;;;;3.00;1.50;;;2.10;99.90;;;;;;5068343;28;20240;-73
2023/10/16 04:03:19;;;;;;;2.57;1.40;;;2.00;99.90;;;;;;5068634;28;20193;-73
2023/10/16 04:05:46;;;;;;;2.08;1.30;;;2.00;99.90;;;;;;5068222;28;20202;-72
2023/10/16 04:08:21;;;;;;;1.77;1.60;;;2.00;99.90;;;;;;5066084;28;20668;-73
2023/10/16 04:10:53;;;;;;;2.53;1.47;;;2.00;99.90;;;;;;5067776;28;20482;-72
2023/10/16 04:13:19;;;;;;;2.17;1.70;;;2.00;99.90;;;;;;5067468;28;20423;-72
2023/10/16 04:15:59;;;;;;;1.87;1.20;;;2.00;99.90;;;;;;5067535;28;20206;-72
2023/10/16 04:20:56;;;;;;;3.10;2.27;;;2.00;99.90;;;;;;5067191;28;20190;-72
2023/10/16 04:23:52;;;;;;;2.95;1.25;;;2.10;99.90;;;;;;5066845;28;20426;-72
2023/10/16 04:26:29;;;;;;;1.67;1.57;;;1.80;99.90;;;;;;5067169;28;20697;-72
2023/10/16 04:31:44;;;;;;;6.97;2.03;;;1.70;99.90;;;;;;5067340;28;20993;-72
2023/10/16 04:45:25;;;;;;;3.73;2.00;;;2.00;99.90;;;;;;5067267;28;20201;-72
2023/10/16 04:53:21;;;;;;;3.33;1.90;;;1.80;99.90;;;;;;5043653;28;20205;-72
2023/10/16 05:09:53;;;;;;;3.30;2.17;;;1.80;99.90;;;;;;5067093;28;20405;-72
2023/10/16 05:17:21;;;;;;;5.82;1.90;;;1.70;99.90;;;;;;5065395;28;20214;-71
2023/10/16 05:19:53;;;;;;;2.23;1.57;;;1.70;99.90;;;;;;5065414;28;20658;-71
2023/10/16 06:14:18;;;;;;;7.30;2.05;;;1.90;99.90;;;;;;5070423;28;20284;-72
2023/10/16 06:16:46;;;;;;;3.00;1.80;;;1.90;99.90;;;;;;5070293;28;20285;-73
2023/10/16 06:19:15;;;;;;;3.95;1.77;;;2.00;99.90;;;;;;5070638;28;20307;-72
2023/10/16 06:22:10;;;;;;;2.40;1.80;;;2.00;99.90;;;;;;5069121;28;20186;-72
2023/10/16 06:24:38;;;;;;;2.33;2.10;;;2.20;99.90;;;;;;5068878;28;20272;-72
2023/10/16 06:27:12;;;;;;;3.25;2.05;;;2.20;99.90;;;;;;5069984;28;20449;-72
2023/10/16 06:29:51;;;;;;;3.43;2.60;;;2.20;99.90;;;;;;5068626;28;20277;-72
2023/10/16 06:32:35;;;;;;;6.10;2.50;;;2.20;99.90;;;;;;5069683;28;20533;-72
2023/10/16 06:35:01;;;;;;;4.50;3.67;;;2.30;99.90;;;;;;5069583;28;20427;-72
2023/10/16 06:37:35;;;;;;;5.87;2.93;;;2.20;99.90;;;;;;5069443;28;20453;-72
2023/10/16 06:40:01;;;;;;;4.75;3.47;;;2.20;99.90;;;;;;5067985;28;20806;-72
2023/10/16 06:42:27;;;;;;;8.13;4.17;;;2.20;99.90;;;;;;5067843;28;20183;-73
2023/10/16 06:44:54;;;;;;;5.40;3.80;;;2.30;99.90;;;;;;5069258;28;20420;-72
2023/10/16 06:47:35;;;;;;;2.90;2.70;;;2.30;99.90;;;;;;5068766;28;20782;-72
2023/10/16 06:52:53;;;;;;;10.25;4.25;;;2.60;99.90;;;;;;5069003;28;20428;-72
2023/10/16 06:55:21;;;;;;;7.73;3.67;;;2.70;99.90;;;;;;5069059;28;20688;-72
2023/10/16 06:57:47;;;;;;;8.63;3.33;;;2.80;99.90;;;;;;5069065;28;20512;-72
2023/10/16 07:00:23;;;;;;;6.97;3.10;;;2.70;99.90;;;;;;5068962;28;20187;-72
2023/10/16 07:02:56;;;;;;;4.30;3.03;;;2.80;99.90;;;;;;5067576;28;20448;-71
2023/10/16 07:05:25;;;;;;;6.07;3.80;;;3.00;99.90;;;;;;5068877;28;20408;-72
2023/10/16 07:07:56;;;;;;;11.25;3.00;;;3.10;99.90;;;;;;5068847;28;20454;-73
2023/10/16 07:10:25;;;;;;;4.40;4.00;;;3.30;99.90;;;;;;5067431;28;20187;-73
2023/10/16 07:12:58;;;;;;;8.53;5.83;;;3.40;99.90;;;;;;5069031;28;20445;-73
2023/10/16 07:15:29;;;;;;;7.00;5.07;;;3.60;99.90;;;;;;5068714;28;20421;-72
2023/10/16 07:17:55;;;;;;;6.93;4.47;;;3.80;99.90;;;;;;5067430;28;21255;-72
2023/10/16 07:20:29;;;;;;;4.83;3.60;;;3.80;99.90;;;;;;5068633;28;20919;-73
2023/10/16 07:22:59;;;;;;;4.13;3.83;;;4.00;99.90;;;;;;5069057;28;20511;-73
2023/10/16 07:28:12;;;;;;;8.33;3.30;;;4.10;99.90;;;;;;5069212;28;20412;-72
2023/10/16 07:30:42;;;;;;;4.70;2.60;;;4.20;99.90;;;;;;5068980;28;20420;-72
2023/10/16 07:33:14;;;;;;;4.00;2.90;;;4.20;99.90;;;;;;5067443;28;20334;-72
2023/10/16 07:35:47;;;;;;;3.37;2.37;;;4.30;99.90;;;;;;5068841;28;20923;-72
2023/10/16 07:38:19;;;;;;;3.47;2.50;;;4.30;99.90;;;;;;5068895;28;20477;-72
2023/10/16 07:40:51;;;;;;;4.60;2.60;;;4.30;99.90;;;;;;5067546;28;20933;-72
2023/10/16 07:43:26;;;;;;;5.53;3.17;;;4.50;99.90;;;;;;5069152;28;20417;-72
2023/10/16 07:48:50;;;;;;;5.70;3.27;;;4.90;99.90;;;;;;5067148;28;20413;-71
2023/10/16 07:51:20;;;;;;;4.77;3.50;;;5.10;99.90;;;;;;5068547;28;20538;-71
2023/10/16 07:53:48;;;;;;;4.47;3.40;;;5.30;99.90;;;;;;5068519;28;20932;-72
2023/10/16 07:56:19;;;;;;;8.73;3.27;;;5.50;99.90;;;;;;5068665;28;20437;-71
2023/10/16 07:58:49;;;;;;;3.40;2.70;;;5.80;99.90;;;;;;5067929;28;20551;-72
2023/10/16 08:01:32;;;;;;;4.00;2.80;;;6.00;99.90;;;;;;5067086;28;20437;-72
2023/10/16 08:03:58;;;;;;;3.87;2.40;;;6.20;99.90;;;;;;5067856;28;20428;-71
2023/10/16 08:06:25;;;;;;;6.37;2.13;;;6.20;99.90;;;;;;5068803;28;20476;-72
2023/10/16 08:09:29;;;;;;;7.83;2.30;;;6.40;99.90;;;;;;5067449;28;20573;-72
2023/10/16 08:11:43;;;;;;;6.87;2.20;;;6.40;99.90;;;;;;5068695;28;21235;-72
2023/10/16 08:14:10;;;;;;;3.13;2.20;;;6.60;99.90;;;;;;5068590;28;20414;-71
2023/10/16 08:16:38;;;;;;;2.60;2.03;;;6.70;99.90;;;;;;5068106;28;20448;-72
2023/10/16 08:19:14;;;;;;;5.90;2.67;;;6.90;99.90;;;;;;5067880;28;20493;-72
2023/10/16 08:21:42;;;;;;;9.90;5.17;;;7.00;99.90;;;;;;5068151;28;20417;-72
2023/10/16 08:24:12;;;;;;;13.70;6.60;;;7.10;99.90;;;;;;5066741;28;20838;-72
2023/10/16 08:26:42;;;;;;;7.60;4.93;;;7.30;99.90;;;;;;5067764;28;20426;-72
2023/10/16 08:29:12;;;;;;;7.83;5.00;;;7.40;99.90;;;;;;5067686;28;20403;-72
2023/10/16 08:31:44;;;;;;;7.80;3.93;;;7.40;99.90;;;;;;5068038;28;20832;-71
2023/10/16 08:34:21;;;;;;;11.00;4.00;;;7.70;99.90;;;;;;5067984;28;20415;-72
2023/10/16 08:36:53;;;;;;;8.37;3.80;;;8.10;99.90;;;;;;5066148;28;20468;-72
2023/10/16 08:39:21;;;;;;;3.70;2.90;;;8.50;99.90;;;;;;5067537;28;20411;-73
2023/10/16 08:41:53;;;;;;;4.77;2.80;;;9.20;99.90;;;;;;5067475;28;20923;-73
2023/10/16 08:44:21;;;;;;;8.27;3.50;;;9.60;99.90;;;;;;5066292;28;20394;-72
2023/10/16 08:49:23;;;;;;;7.03;4.63;;;11.00;99.90;;;;;;5067343;28;20410;-72
2023/10/16 08:51:49;;;;;;;10.07;3.83;;;11.90;99.90;;;;;;5048982;28;20421;-72
2023/10/16 08:57:00;;;;;;;6.63;4.10;;;13.60;99.90;;;;;;5067277;28;20427;-72
2023/10/16 08:59:27;;;;;;;6.23;3.80;;;14.00;99.90;;;;;;5067118;28;20417;-72
2023/10/16 09:01:57;;;;;;;9.07;3.80;;;14.80;99.90;;;;;;5065665;28;20452;-71
2023/10/16 09:04:25;;;;;;;6.00;3.40;;;15.40;99.90;;;;;;5067298;28;20595;-72
2023/10/16 09:06:51;;;;;;;6.10;2.43;;;16.30;99.90;;;;;;5067161;28;21018;-72
2023/10/16 09:09:16;;;;;;;4.00;2.50;;;16.80;99.90;;;;;;5067931;28;20416;-72
2023/10/16 09:11:49;;;;;;;3.37;2.57;;;17.20;99.90;;;;;;5073836;28;20196;-72
2023/10/16 09:14:17;;;;;;;4.70;2.70;;;17.70;99.90;;;;;;5073830;28;20179;-72
2023/10/16 09:16:51;;;;;;;5.87;2.80;;;17.90;99.90;;;;;;5073780;28;20463;-72
2023/10/16 09:19:18;;;;;;;4.93;3.07;;;18.00;99.90;;;;;;5073741;28;20557;-72
2023/10/16 09:21:44;;;;;;;4.63;2.97;;;17.60;99.90;;;;;;5073842;28;20403;-72
2023/10/16 09:24:13;;;;;;;5.30;2.40;;;17.00;99.90;;;;;;5074036;28;20446;-72
2023/10/16 09:26:44;;;;;;;6.30;3.20;;;16.40;99.90;;;;;;5074170;28;20425;-73
2023/10/16 09:29:19;;;;;;;4.93;2.60;;;16.30;99.90;;;;;;5074158;28;20917;-72
2023/10/16 09:31:46;;;;;;;7.20;3.10;;;17.00;99.90;;;;;;5074289;28;20924;-72
2023/10/16 09:34:17;;;;;;;3.93;2.70;;;17.00;99.90;;;;;;5055418;28;20512;-72
2023/10/16 09:37:07;;;;;;;4.00;2.10;;;16.90;99.90;;;;;;5073759;28;20428;-72
2023/10/16 09:39:34;;;;;;;5.57;2.60;;;17.40;99.90;;;;;;5073629;28;20428;-71
2023/10/16 09:42:05;;;;;;;4.37;2.30;;;17.50;99.90;;;;;;5073857;28;21283;-72
2023/10/16 09:44:37;;;;;;;4.43;2.57;;;17.50;99.90;;;;;;5072011;28;20423;-72
2023/10/16 09:47:25;;;;;;;6.47;2.70;;;16.90;99.90;;;;;;5072113;28;20438;-72
2023/10/16 09:49:49;;;;;;;3.67;2.40;;;16.70;99.90;;;;;;5073366;28;20446;-73
2023/10/16 09:52:21;;;;;;;5.90;2.77;;;16.80;99.90;;;;;;5072126;28;20515;-72
2023/10/16 09:54:51;;;;;;;5.30;2.67;;;16.70;99.90;;;;;;5073700;28;20794;-72
2023/10/16 09:57:27;;;;;;;4.03;2.63;;;16.40;99.90;;;;;;5073749;28;20510;-73
2023/10/16 10:02:42;;;;;;;6.70;3.40;;;16.40;99.90;;;;;;5073381;28;20511;-73
2023/10/16 10:05:12;;;;;;;5.93;3.30;;;16.80;99.90;;;;;;5073685;28;20427;-72
2023/10/16 10:07:51;;;;;;;4.43;2.80;;;16.90;99.90;;;;;;5073786;28;20446;-73
2023/10/16 10:13:09;;;;;;;5.10;3.30;;;17.10;99.90;;;;;;5073904;28;20467;-71
2023/10/16 10:15:39;;;;;;;4.20;2.60;;;17.60;99.90;;;;;;5073402;28;20419;-71
2023/10/16 10:21:11;;;;;;;4.40;2.60;;;18.20;99.70;;;;;;5071444;28;20890;-71
2023/10/16 10:23:38;;;;;;;7.03;2.77;;;18.70;99.40;;;;;;5068709;28;20413;-73
2023/10/16 10:26:07;;;;;;;10.33;3.33;;;18.60;98.00;;;;;;5070076;28;20495;-72
2023/10/16 10:28:36;;;;;;;5.50;2.57;;;19.10;98.70;;;;;;5070696;28;21042;-72
2023/10/16 10:31:04;;;;;;;4.53;2.60;;;19.40;99.10;;;;;;5068358;28;20862;-72
2023/10/16 10:33:52;;;;;;;4.67;3.30;;;19.10;97.90;;;;;;5069881;28;20513;-72
2023/10/16 10:36:34;;;;;;;6.13;2.87;;;19.30;98.90;;;;;;5069513;28;20471;-71
2023/10/16 10:39:21;;;;;;;6.07;2.80;;;18.90;99.90;;;;;;5069769;28;20476;-71
2023/10/16 10:41:54;;;;;;;6.40;2.73;;;18.50;98.70;;;;;;5069580;28;20783;-71
2023/10/16 10:44:29;;;;;;;4.33;2.90;;;18.00;98.80;;;;;;5069546;28;20449;-71
2023/10/16 10:46:57;;;;;;;4.53;3.20;;;18.20;98.50;;;;;;5069356;28;20422;-72
2023/10/16 10:49:34;;;;;;;4.73;2.70;;;18.00;99.00;;;;;;5069722;28;20411;-72
2023/10/16 10:52:05;;;;;;;3.40;2.80;;;18.10;98.20;;;;;;5069229;28;20424;-71
2023/10/16 10:54:31;;;;;;;6.23;2.37;;;18.10;98.10;;;;;;5069182;28;20410;-71
2023/10/16 10:57:07;;;;;;;6.67;2.30;;;18.10;98.40;;;;;;5069685;28;20519;-71
2023/10/16 10:59:40;;;;;;;4.33;2.33;;;18.60;97.50;;;;;;5069391;28;20536;-71
2023/10/16 11:02:22;;;;;;;3.03;1.90;;;18.40;97.20;;;;;;5069108;28;20441;-73
2023/10/16 11:04:59;;;;;;;4.33;2.37;;;18.00;96.70;;;;;;5067881;28;20932;-73
2023/10/16 11:07:29;;;;;;;4.20;2.50;;;17.30;98.50;;;;;;5069034;28;20443;-73
2023/10/16 11:09:57;;;;;;;3.77;1.70;;;17.70;96.80;;;;;;5069078;28;20423;-73
2023/10/16 11:12:26;;;;;;;3.80;2.40;;;17.50;95.70;;;;;;5068916;28;20431;-73
2023/10/16 11:14:53;;;;;;;3.10;2.00;;;16.70;96.20;;;;;;5068977;28;20932;-73
2023/10/16 11:17:32;;;;;;;3.03;1.80;;;16.40;96.50;;;;;;5068751;28;20471;-73
2023/10/16 11:20:11;;;;;;;5.67;2.13;;;16.40;95.70;;;;;;5067047;28;20428;-73
2023/10/16 11:22:43;;;;;;;3.30;1.60;;;16.20;96.70;;;;;;5068921;28;20421;-73
2023/10/16 11:25:12;;;;;;;3.80;2.17;;;16.30;96.60;;;;;;5068686;28;20427;-73
2023/10/16 11:27:42;;;;;;;5.70;1.90;;;16.40;95.80;;;;;;5068716;28;20451;-72
2023/10/16 11:30:18;;;;;;;4.00;1.50;;;16.00;96.50;;;;;;5069075;28;20415;-73
2023/10/16 11:32:46;;;;;;;1.57;0.90;;;15.50;94.10;;;;;;5067988;28;21008;-73
2023/10/16 11:35:14;;;;;;;2.40;1.27;;;15.00;93.30;;;;;;5067686;28;20440;-74
2023/10/16 11:37:43;;;;;;;2.07;1.70;;;15.20;94.60;;;;;;5068916;28;20497;-73
2023/10/16 11:40:24;;;;;;;3.33;1.50;;;15.40;97.20;;;;;;5068955;28;20422;-74
2023/10/16 11:42:52;;;;;;;2.00;1.40;;;15.00;95.60;;;;;;5068720;28;20797;-72
2023/10/16 11:45:20;;;;;;;1.93;1.40;;;14.70;95.40;;;;;;5068883;28;20417;-73
2023/10/16 11:48:18;;;;;;;2.83;1.50;;;14.70;95.80;;;;;;5050225;28;20866;-73
2023/10/16 11:50:39;;;;;;;5.33;1.50;;;14.70;96.80;;;;;;5067966;28;20796;-73
2023/10/16 11:53:08;;;;;;;2.47;1.20;;;14.60;94.40;;;;;;5066571;28;20517;-73
2023/10/16 11:55:37;;;;;;;1.80;1.30;;;14.60;94.00;;;;;;5066759;28;20497;-73
2023/10/16 11:58:06;;;;;;;1.50;1.20;;;14.60;94.40;;;;;;5066339;28;21077;-73
2023/10/16 12:00:35;;;;;;;1.60;1.03;;;14.50;93.80;;;;;;5067998;28;20938;-73
2023/10/16 12:03:07;;;;;;;1.53;1.13;;;14.50;94.70;;;;;;5066236;28;20449;-73
2023/10/16 12:05:35;;;;;;;5.80;1.00;;;14.40;93.50;;;;;;5067933;28;20417;-72
2023/10/16 12:08:02;;;;;;;3.20;0.90;;;14.50;93.60;;;;;;5067959;28;20423;-73
2023/10/16 12:10:31;;;;;;;2.17;1.13;;;14.60;95.40;;;;;;5066226;28;20958;-72
2023/10/16 12:12:58;;;;;;;4.00;1.20;;;14.60;93.30;;;;;;5067643;28;20464;-72
2023/10/16 12:15:25;;;;;;;3.13;0.77;;;14.60;92.50;;;;;;5066091;28;20431;-73
2023/10/16 12:17:53;;;;;;;2.20;1.00;;;14.60;92.10;;;;;;5067664;28;20483;-73
2023/10/16 12:20:21;;;;;;;1.00;0.70;;;14.60;91.40;;;;;;5067755;28;20537;-73
2023/10/16 12:22:48;;;;;;;0.90;0.60;;;14.90;92.70;;;;;;5067657;28;20468;-73
2023/10/16 12:25:14;;;;;;;4.57;1.20;;;15.00;92.80;;;;;;5067373;28;20425;-73
2023/10/16 12:27:40;;;;;;;1.10;0.73;;;14.70;92.70;;;;;;5066063;28;20469;-73
2023/10/16 12:30:12;;;;;;;7.77;1.13;;;14.70;94.30;;;;;;5067564;28;21078;-73
2023/10/16 12:32:38;;;;;;;4.77;1.10;;;14.70;93.20;;;;;;5067757;28;20427;-72
2023/10/16 12:35:08;;;;;;;2.00;0.90;;;14.70;93.70;;;;;;5067935;28;20479;-72
2023/10/16 12:37:34;;;;;;;1.47;0.90;;;14.50;93.30;;;;;;5067852;28;20250;-73
2023/10/16 12:40:05;;;;;;;1.30;0.70;;;14.30;95.40;;;;;;5067931;28;20419;-73
2023/10/16 12:42:31;;;;;;;4.40;1.03;;;14.00;93.20;;;;;;5067835;28;20424;-73
2023/10/16 12:44:56;;;;;;;2.67;0.90;;;14.10;93.50;;;;;;5065939;28;20411;-74
2023/10/16 12:47:22;;;;;;;2.43;0.90;;;14.10;92.70;;;;;;5067123;28;20208;-73
2023/10/16 12:49:48;;;;;;;0.93;0.77;;;14.20;93.10;;;;;;5067499;28;20274;-73
2023/10/16 12:52:13;;;;;;;1.60;1.00;;;14.10;93.80;;;;;;5067154;28;20196;-73
2023/10/16 12:54:44;;;;;;;3.30;1.07;;;14.30;93.10;;;;;;5067474;28;20186;-73
2023/10/16 12:57:10;;;;;;;1.87;0.83;;;14.30;93.20;;;;;;5065542;28;20598;-73
2023/10/16 12:59:36;;;;;;;5.03;0.80;;;14.40;93.30;;;;;;5067205;28;20454;-73
2023/10/16 13:02:04;;;;;;;2.20;0.80;;;14.40;93.20;;;;;;5065529;28;20863;-73
2023/10/16 13:04:33;;;;;;;1.07;0.63;;;14.40;94.30;;;;;;5065573;28;20577;-73
2023/10/16 13:07:00;;;;;;;2.07;0.70;;;14.50;93.80;;;;;;5065628;28;20809;-73
2023/10/16 13:09:25;;;;;;;1.77;0.70;;;14.50;93.40;;;;;;5065449;28;20865;-73
2023/10/16 13:11:51;;;;;;;2.00;1.10;;;14.10;92.90;;;;;;5067048;28;20423;-72
2023/10/16 13:14:17;;;;;;;2.90;1.17;;;14.10;95.10;;;;;;5067030;28;20718;-73
2023/10/16 13:16:53;;;;;;;1.77;1.10;;;14.10;93.40;;;;;;5065573;28;20231;-73
2023/10/16 13:19:19;;;;;;;1.73;1.13;;;14.20;92.40;;;;;;5067014;28;20409;-74
2023/10/16 13:21:51;;;;;;;6.63;0.83;;;14.00;93.00;;;;;;5065241;28;20459;-73
2023/10/16 13:24:19;;;;;;;3.00;1.00;;;13.90;92.70;;;;;;5065865;28;20393;-74
2023/10/16 13:26:47;;;;;;;2.40;0.83;;;13.40;92.10;;;;;;5049060;28;21135;-73
2023/10/16 13:29:16;;;;;;;2.07;1.10;;;13.60;93.40;;;;;;5066831;28;20416;-73
2023/10/16 13:31:46;;;;;;;4.60;1.10;;;13.90;93.70;;;;;;5067161;28;21049;-73
2023/10/16 13:34:17;;;;;;;1.87;1.10;;;13.90;91.10;;;;;;5065228;28;20810;-73
2023/10/16 13:37:29;;;;;;;2.50;0.97;;;13.50;89.80;;;;;;5066782;28;20521;-72
2023/10/16 13:39:38;;;;;;;1.47;1.13;;;13.50;90.80;;;;;;5059139;28;21328;-72
2023/10/16 13:42:08;;;;;;;1.03;0.83;;;13.30;90.40;;;;;;5049441;28;20470;-73
2023/10/16 13:44:35;;;;;;;2.30;1.00;;;13.40;91.40;;;;;;5066701;28;20579;-74
2023/10/16 13:47:05;;;;;;;2.60;0.77;;;13.50;91.00;;;;;;5067416;28;20432;-74
2023/10/16 13:49:36;;;;;;;1.83;1.03;;;13.60;90.90;;;;;;5066783;28;21098;-74
2023/10/16 13:52:03;;;;;;;1.17;1.07;;;13.60;90.50;;;;;;5065175;28;20425;-73
2023/10/16 13:54:31;;;;;;;4.20;1.10;;;13.70;90.30;;;;;;5065085;28;20452;-74
2023/10/16 13:56:57;;;;;;;3.00;0.93;;;13.30;90.30;;;;;;5068737;28;20482;-74
2023/10/16 13:59:23;;;;;;;2.07;1.10;;;13.10;91.00;;;;;;5070327;28;20432;-73
2023/10/16 14:01:49;;;;;;;4.03;1.27;;;13.10;90.60;;;;;;5070319;28;20444;-74
2023/10/16 14:04:16;;;;;;;1.63;1.07;;;13.20;90.60;;;;;;5070216;28;20422;-73
2023/10/16 14:06:52;;;;;;;1.63;0.90;;;13.20;90.90;;;;;;5068620;28;20579;-73
2023/10/16 14:09:27;;;;;;;0.90;0.73;;;13.30;90.70;;;;;;5070136;28;20417;-72
2023/10/16 14:11:54;;;;;;;1.93;1.20;;;13.40;90.30;;;;;;5070374;28;20425;-73
2023/10/16 14:14:20;;;;;;;4.07;2.00;;;13.40;90.20;;;;;;5070031;28;20421;-72
2023/10/16 14:17:16;;;;;;;3.87;1.70;;;13.50;91.00;;;;;;5069899;28;21044;-73
2023/10/16 14:19:47;;;;;;;1.93;1.00;;;13.30;90.90;;;;;;5070145;28;20422;-72
2023/10/16 14:22:16;;;;;;;1.63;1.10;;;13.30;91.20;;;;;;5070070;28;20420;-72
2023/10/16 14:24:45;;;;;;;2.37;1.30;;;13.20;90.30;;;;;;5070229;28;20414;-73
2023/10/16 14:27:26;;;;;;;2.10;1.40;;;13.10;90.30;;;;;;5070043;28;20432;-72
2023/10/16 14:29:59;;;;;;;2.37;1.37;;;13.10;90.30;;;;;;5070227;28;21259;-71
2023/10/16 14:32:24;;;;;;;6.63;1.63;;;13.10;90.60;;;;;;5070035;28;20434;-74
2023/10/16 14:34:50;;;;;;;1.87;1.10;;;13.00;90.10;;;;;;5068469;28;20452;-71
2023/10/16 14:37:16;;;;;;;2.27;0.90;;;13.00;90.60;;;;;;5068098;28;20203;-72
2023/10/16 14:39:46;;;;;;;1.40;1.30;;;13.10;91.00;;;;;;5051326;28;20525;-72
2023/10/16 14:42:11;;;;;;;1.97;1.57;;;13.20;90.60;;;;;;5069521;28;20505;-71
2023/10/16 14:44:38;;;;;;;2.30;1.50;;;13.10;90.80;;;;;;5068334;28;20505;-72
2023/10/16 14:47:09;;;;;;;1.60;1.00;;;13.10;90.70;;;;;;5068219;28;20784;-72
2023/10/16 14:49:35;;;;;;;2.70;1.17;;;13.00;91.80;;;;;;5069584;28;20422;-72
2023/10/16 14:52:01;;;;;;;1.57;0.90;;;13.00;91.50;;;;;;5069451;28;20418;-72
2023/10/16 14:54:26;;;;;;;1.47;1.10;;;13.00;90.00;;;;;;5069672;28;20425;-73
2023/10/16 14:56:52;;;;;;;2.37;1.27;;;13.00;90.10;;;;;;5051365;28;20844;-72
2023/10/16 14:59:27;;;;;;;1.87;1.00;;;13.00;90.30;;;;;;5069463;28;20222;-71
2023/10/16 15:01:53;;;;;;;2.10;0.80;;;13.00;91.00;;;;;;5069219;28;20208;-72
2023/10/16 15:04:20;;;;;;;1.50;1.10;;;12.90;91.30;;;;;;5069636;28;20420;-71
2023/10/16 15:06:46;;;;;;;2.00;1.33;;;12.90;91.40;;;;;;5068950;28;20544;-71
2023/10/16 15:09:16;;;;;;;3.10;1.03;;;12.90;92.30;;;;;;5067887;28;20418;-72